createdAt,value
2018-10-04T00:00:29.666Z,9.65
2018-10-04T00:02:59.692Z,9.48
2018-10-04T00:05:29.567Z,9.43
2018-10-04T00:07:59.703Z,10.50
2018-10-04T00:10:29.807Z,9.53
2018-10-04T00:12:59.790Z,9.78
2018-10-04T00:15:29.775Z,9.15
2018-10-04T00:17:59.939Z,11.65
2018-10-04T00:20:29.929Z,11.70
2018-10-04T00:22:59.229Z,11.07
2018-10-04T00:25:28.421Z,9.50
2018-10-04T00:27:57.542Z,11.40
2018-10-04T00:30:27.570Z,9.85
2018-10-04T00:32:56.830Z,11.07
2018-10-04T00:35:27.111Z,10.28
2018-10-04T00:37:56.301Z,10.63
2018-10-04T00:40:25.511Z,9.70
2018-10-04T00:42:54.679Z,9.83
2018-10-04T00:45:23.838Z,10.33
2018-10-04T00:47:52.945Z,11.40
2018-10-04T00:50:22.102Z,10.53
2018-10-04T00:52:51.467Z,10.10
2018-10-04T00:55:20.719Z,10.60
2018-10-04T00:57:50.031Z,10.07
2018-10-04T01:00:19.250Z,10.23
2018-10-04T01:02:48.440Z,9.70
2018-10-04T01:05:17.667Z,9.13
2018-10-04T01:07:46.783Z,9.13
2018-10-04T01:10:15.982Z,9.00
2018-10-04T01:12:45.163Z,11.13
2018-10-04T01:15:14.343Z,10.27
2018-10-04T01:17:43.435Z,9.20
2018-10-04T01:20:12.711Z,9.20
2018-10-04T01:22:41.872Z,9.80
2018-10-04T01:25:11.039Z,9.80
2018-10-04T01:27:40.189Z,10.50
2018-10-04T01:30:09.315Z,9.50
2018-10-04T01:32:38.562Z,9.83
2018-10-04T01:35:07.618Z,10.70
2018-10-04T01:37:36.758Z,9.70
2018-10-04T01:40:06.011Z,9.60
2018-10-04T01:42:35.158Z,9.48
2018-10-04T01:45:04.282Z,11.37
2018-10-04T01:47:33.486Z,10.80
2018-10-04T01:50:02.630Z,14.30
2018-10-04T01:52:31.845Z,9.73
2018-10-04T01:55:01.070Z,10.87
2018-10-04T01:57:31.048Z,12.18
2018-10-04T02:00:01.004Z,11.18
2018-10-04T02:02:31.133Z,10.55
2018-10-04T02:05:01.055Z,11.18
2018-10-04T02:07:31.185Z,10.75
2018-10-04T02:10:01.257Z,10.60
2018-10-04T02:12:31.291Z,10.50
2018-10-04T02:15:01.324Z,11.13
2018-10-04T02:17:31.200Z,10.73
2018-10-04T02:20:01.231Z,11.75
2018-10-04T02:22:31.169Z,9.43
2018-10-04T02:25:01.392Z,10.48
2018-10-04T02:27:31.393Z,9.58
2018-10-04T02:30:01.447Z,8.85
2018-10-04T02:32:31.492Z,9.95
2018-10-04T02:35:01.449Z,9.93
2018-10-04T02:37:31.433Z,9.70
2018-10-04T02:40:01.600Z,9.93
2018-10-04T02:42:31.539Z,10.30
2018-10-04T02:45:01.680Z,8.90
2018-10-04T02:47:31.670Z,9.77
2018-10-04T02:50:01.830Z,9.13
2018-10-04T02:52:31.685Z,9.85
2018-10-04T02:55:07.104Z,10.88
2018-10-04T02:57:36.293Z,9.60
2018-10-04T03:00:05.420Z,10.50
2018-10-04T03:02:34.579Z,11.47
2018-10-04T03:05:03.718Z,12.25
2018-10-04T03:07:32.914Z,10.60
2018-10-04T03:10:02.119Z,9.67
2018-10-04T03:12:32.021Z,10.72
2018-10-04T03:15:02.028Z,11.35
2018-10-04T03:17:31.905Z,10.32
2018-10-04T03:20:02.019Z,9.63
2018-10-04T03:22:32.118Z,10.48
2018-10-04T03:25:02.122Z,8.68
2018-10-04T03:27:32.176Z,10.23
2018-10-04T03:30:02.313Z,10.30
2018-10-04T03:32:32.274Z,9.58
2018-10-04T03:35:02.279Z,8.55
2018-10-04T03:37:32.254Z,9.78
2018-10-04T03:40:02.294Z,9.40
2018-10-04T03:42:32.484Z,9.02
2018-10-04T03:45:02.406Z,9.20
2018-10-04T03:47:32.467Z,8.98
2018-10-04T03:50:02.486Z,8.90
2018-10-04T03:52:32.586Z,8.82
2018-10-04T03:55:02.568Z,9.85
2018-10-04T03:57:32.584Z,9.18
2018-10-04T04:00:02.535Z,9.33
2018-10-04T04:02:32.554Z,9.10
2018-10-04T04:05:02.689Z,9.05
2018-10-04T04:07:32.655Z,9.98
2018-10-04T04:10:02.795Z,8.23
2018-10-04T04:12:32.769Z,9.46
2018-10-04T04:15:02.755Z,10.40
2018-10-04T04:17:32.838Z,9.10
2018-10-04T04:20:02.840Z,8.60
2018-10-04T04:22:32.880Z,9.46
2018-10-04T04:25:02.927Z,9.03
2018-10-04T04:27:32.880Z,9.98
2018-10-04T04:30:03.070Z,8.98
2018-10-04T04:32:33.102Z,9.04
2018-10-04T04:35:02.984Z,8.68
2018-10-04T04:37:33.309Z,9.44
2018-10-04T04:40:03.102Z,8.97
2018-10-04T04:42:33.066Z,8.48
2018-10-04T04:45:03.154Z,9.03
2018-10-04T04:47:33.315Z,8.94
2018-10-04T04:50:03.159Z,10.15
2018-10-04T04:52:33.336Z,9.54
2018-10-04T04:55:37.945Z,9.80
2018-10-04T04:58:08.458Z,9.00
2018-10-04T05:00:38.593Z,8.33
2018-10-04T05:03:07.740Z,9.53
2018-10-04T05:05:37.117Z,7.83
2018-10-04T05:08:07.432Z,8.50
2018-10-04T05:10:37.039Z,8.27
2018-10-04T05:13:06.963Z,8.73
2018-10-04T05:15:36.148Z,8.75
2018-10-04T05:18:05.538Z,8.03
2018-10-04T05:20:34.750Z,9.23
2018-10-04T05:23:04.043Z,9.77
2018-10-04T05:25:46.752Z,9.54
2018-10-04T05:28:16.202Z,8.60
2018-10-04T05:30:45.363Z,8.80
2018-10-04T05:33:14.443Z,8.03
2018-10-04T05:35:43.630Z,9.10
2018-10-04T05:38:12.754Z,9.35
2018-10-04T05:40:41.930Z,10.40
2018-10-04T05:43:11.175Z,9.40
2018-10-04T05:45:40.384Z,8.33
2018-10-04T05:48:09.639Z,9.80
2018-10-04T05:50:38.858Z,8.75
2018-10-04T05:53:08.152Z,9.20
2018-10-04T05:55:37.622Z,9.50
2018-10-04T05:58:06.797Z,9.30
2018-10-04T06:00:38.508Z,8.70
2018-10-04T06:03:07.659Z,10.23
2018-10-04T06:05:36.974Z,8.50
2018-10-04T06:08:06.194Z,9.20
2018-10-04T06:10:35.795Z,9.20
2018-10-04T06:13:04.966Z,9.90
2018-10-04T06:15:34.155Z,8.98
2018-10-04T06:18:04.643Z,10.75
2018-10-04T06:20:36.462Z,10.50
2018-10-04T06:23:05.669Z,10.30
2018-10-04T06:25:34.747Z,8.68
2018-10-04T06:28:04.482Z,9.90
2018-10-04T06:30:34.503Z,9.33
2018-10-04T06:33:04.582Z,10.60
2018-10-04T06:35:34.586Z,11.70
2018-10-04T06:38:04.635Z,12.80
2018-10-04T06:40:34.722Z,13.70
2018-10-04T06:43:04.763Z,14.20
2018-10-04T06:45:34.772Z,14.28
2018-10-04T06:48:04.787Z,14.58
2018-10-04T06:50:34.806Z,14.64
2018-10-04T06:53:04.922Z,16.52
2018-10-04T06:55:34.764Z,15.94
2018-10-04T06:58:04.962Z,16.30
2018-10-04T07:00:34.861Z,16.42
2018-10-04T07:03:04.938Z,17.07
2018-10-04T07:05:34.994Z,17.26
2018-10-04T07:08:05.051Z,20.27
2018-10-04T07:10:35.102Z,16.18
2018-10-04T07:13:05.079Z,17.15
2018-10-04T07:15:35.179Z,17.54
2018-10-04T07:18:05.402Z,17.32
2018-10-04T07:20:35.553Z,17.52
2018-10-04T07:23:05.273Z,16.70
2018-10-04T07:25:35.335Z,16.42
2018-10-04T07:28:05.582Z,16.02
2018-10-04T07:30:35.386Z,17.34
2018-10-04T07:33:06.517Z,15.85
2018-10-04T07:35:35.687Z,15.73
2018-10-04T07:38:05.449Z,16.97
2018-10-04T07:40:35.629Z,16.35
2018-10-04T07:43:05.640Z,14.60
2018-10-04T07:45:35.703Z,17.10
2018-10-04T07:48:05.658Z,16.42
2018-10-04T07:50:35.629Z,14.78
2018-10-04T07:53:05.713Z,16.40
2018-10-04T07:55:35.702Z,21.46
2018-10-04T07:58:06.027Z,15.98
2018-10-04T08:00:35.795Z,17.08
2018-10-04T08:03:05.870Z,16.23
2018-10-04T08:05:36.005Z,16.44
2018-10-04T08:08:05.834Z,16.70
2018-10-04T08:10:35.903Z,16.42
2018-10-04T08:13:05.998Z,15.65
2018-10-04T08:15:36.086Z,16.22
2018-10-04T08:18:06.106Z,16.67
2018-10-04T08:20:36.085Z,20.74
2018-10-04T08:23:06.135Z,18.00
2018-10-04T08:25:36.226Z,17.22
2018-10-04T08:28:06.417Z,15.68
2018-10-04T08:30:36.294Z,15.25
2018-10-04T08:33:06.549Z,17.52
2018-10-04T08:35:36.525Z,15.72
2018-10-04T08:38:06.501Z,16.87
2018-10-04T08:40:36.482Z,17.20
2018-10-04T08:43:06.702Z,16.95
2018-10-04T08:45:36.474Z,14.40
2018-10-04T08:48:06.719Z,18.00
2018-10-04T08:50:36.546Z,17.57
2018-10-04T08:53:06.657Z,17.57
2018-10-04T08:55:37.745Z,19.40
2018-10-04T08:58:06.890Z,20.60
2018-10-04T09:00:36.807Z,20.98
2018-10-04T09:03:06.834Z,19.35
2018-10-04T09:05:36.838Z,19.84
2018-10-04T09:08:06.935Z,19.40
2018-10-04T09:10:36.842Z,19.96
2018-10-04T09:13:06.840Z,17.50
2018-10-04T09:15:37.074Z,17.20
2018-10-04T09:18:07.046Z,16.70
2018-10-04T09:20:37.186Z,18.04
2018-10-04T09:23:07.074Z,16.80
2018-10-04T09:25:37.113Z,17.68
2018-10-04T09:28:11.463Z,16.05
2018-10-04T09:30:45.842Z,17.10
2018-10-04T09:33:15.051Z,18.63
2018-10-04T09:35:44.290Z,17.03
2018-10-04T09:38:13.531Z,15.90
2018-10-04T09:40:42.978Z,11.95
2018-10-04T09:43:12.150Z,12.73
2018-10-04T09:45:41.372Z,14.30
2018-10-04T09:48:13.123Z,15.07
2018-10-04T09:50:42.546Z,14.53
2018-10-04T09:53:12.565Z,15.65
2018-10-04T09:55:47.022Z,13.25
2018-10-04T09:58:16.308Z,13.77
2018-10-04T10:00:50.852Z,13.37
2018-10-04T10:03:20.094Z,12.83
2018-10-04T10:05:49.136Z,12.50
2018-10-04T10:08:18.189Z,12.43
2018-10-04T10:10:47.402Z,10.90
2018-10-04T10:13:16.514Z,10.80
2018-10-04T10:15:45.716Z,11.93
2018-10-04T10:18:14.914Z,11.17
2018-10-04T10:20:44.166Z,12.53
2018-10-04T10:23:13.373Z,13.27
2018-10-04T10:25:42.621Z,14.33
2018-10-04T10:28:11.852Z,14.00
2018-10-04T10:30:41.042Z,12.95
2018-10-04T10:33:10.259Z,12.90
2018-10-04T10:35:39.450Z,13.73
2018-10-04T10:38:08.935Z,13.07
2018-10-04T10:40:38.207Z,14.98
2018-10-04T10:43:08.295Z,14.07
2018-10-04T10:45:38.310Z,13.28
2018-10-04T10:48:08.191Z,15.15
2018-10-04T10:50:38.464Z,13.00
2018-10-04T10:53:08.374Z,11.90
2018-10-04T10:55:38.450Z,11.68
2018-10-04T10:58:08.497Z,12.40
2018-10-04T11:00:38.445Z,12.66
2018-10-04T11:03:08.590Z,10.98
2018-10-04T11:05:38.814Z,12.28
2018-10-04T11:08:08.869Z,13.30
2018-10-04T11:10:38.800Z,12.60
2018-10-04T11:13:08.705Z,23.50
2018-10-04T11:15:38.706Z,15.46
2018-10-04T11:18:08.669Z,14.30
2018-10-04T11:20:38.789Z,12.04
2018-10-04T11:23:08.849Z,13.28
2018-10-04T11:25:38.917Z,11.32
2018-10-04T11:28:08.911Z,11.20
2018-10-04T11:30:38.950Z,11.66
2018-10-04T11:33:09.048Z,12.80
2018-10-04T11:35:39.108Z,12.48
2018-10-04T11:38:09.468Z,12.88
2018-10-04T11:40:39.039Z,14.38
2018-10-04T11:43:10.326Z,11.68
2018-10-04T11:45:40.871Z,13.77
2018-10-04T11:48:12.883Z,11.00
2018-10-04T11:50:42.102Z,12.70
2018-10-04T11:53:11.339Z,12.17
2018-10-04T11:55:40.522Z,11.33
2018-10-04T11:58:09.637Z,12.23
2018-10-04T12:00:39.431Z,11.20
2018-10-04T12:03:09.443Z,10.32
2018-10-04T12:05:39.466Z,11.96
2018-10-04T12:08:09.454Z,10.68
2018-10-04T12:10:39.494Z,11.25
2018-10-04T12:13:09.490Z,10.88
2018-10-04T12:15:39.518Z,11.92
2018-10-04T12:18:09.606Z,9.90
2018-10-04T12:20:39.376Z,9.70
2018-10-04T12:23:09.638Z,9.95
2018-10-04T12:25:39.930Z,10.80
2018-10-04T12:28:09.658Z,10.58
2018-10-04T12:30:39.740Z,9.72
2018-10-04T12:33:09.640Z,10.20
2018-10-04T12:35:39.657Z,9.58
2018-10-04T12:38:09.761Z,10.40
2018-10-04T12:40:39.810Z,8.78
2018-10-04T12:43:09.710Z,9.90
2018-10-04T12:45:39.728Z,10.04
2018-10-04T12:48:09.755Z,8.90
2018-10-04T12:50:39.646Z,10.18
2018-10-04T12:53:09.738Z,9.60
2018-10-04T12:55:39.696Z,9.78
2018-10-04T12:58:09.745Z,9.95
2018-10-04T13:00:39.882Z,10.76
2018-10-04T13:03:09.778Z,9.75
2018-10-04T13:05:40.057Z,10.94
2018-10-04T13:08:09.809Z,10.48
2018-10-04T13:10:39.963Z,11.86
2018-10-04T13:13:09.935Z,11.30
2018-10-04T13:15:39.994Z,9.68
2018-10-04T13:18:09.955Z,8.65
2018-10-04T13:20:40.132Z,10.38
2018-10-04T13:23:10.221Z,9.25
2018-10-04T13:25:40.006Z,9.88
2018-10-04T13:28:10.026Z,9.40
2018-10-04T13:30:39.951Z,9.84
2018-10-04T13:33:10.090Z,9.23
2018-10-04T13:35:40.054Z,8.88
2018-10-04T13:38:10.020Z,9.75
2018-10-04T13:40:40.115Z,11.04
2018-10-04T13:43:10.022Z,9.78
2018-10-04T13:45:40.151Z,10.52
2018-10-04T13:48:10.202Z,9.28
2018-10-04T13:50:40.255Z,8.88
2018-10-04T13:53:10.282Z,9.15
2018-10-04T13:55:40.277Z,10.55
2018-10-04T13:58:10.301Z,10.38
2018-10-04T14:00:40.250Z,9.92
2018-10-04T14:03:10.307Z,10.48
2018-10-04T14:05:40.291Z,10.53
2018-10-04T14:08:10.362Z,9.38
2018-10-04T14:10:40.530Z,9.65
2018-10-04T14:13:10.408Z,10.90
2018-10-04T14:15:40.390Z,9.04
2018-10-04T14:18:10.442Z,9.20
2018-10-04T14:20:40.526Z,10.03
2018-10-04T14:23:10.493Z,9.55
2018-10-04T14:25:40.502Z,8.60
2018-10-04T14:28:10.467Z,8.18
2018-10-04T14:30:40.495Z,9.20
2018-10-04T14:33:10.451Z,8.05
2018-10-04T14:35:40.549Z,9.18
2018-10-04T14:38:10.516Z,9.68
2018-10-04T14:40:40.616Z,9.62
2018-10-04T14:43:10.630Z,9.45
2018-10-04T14:45:40.601Z,8.12
2018-10-04T14:48:10.717Z,7.72
2018-10-04T14:50:40.617Z,9.53
2018-10-04T14:53:10.646Z,8.83
2018-10-04T14:55:40.458Z,8.66
2018-10-04T14:58:10.577Z,9.33
2018-10-04T15:00:40.622Z,9.66
2018-10-04T15:03:10.753Z,8.73
2018-10-04T15:05:40.594Z,8.82
2018-10-04T15:08:10.672Z,14.83
2018-10-04T15:10:40.629Z,10.56
2018-10-04T15:13:10.695Z,8.70
2018-10-04T15:15:40.607Z,8.76
2018-10-04T15:18:10.710Z,8.10
2018-10-04T15:20:40.882Z,7.70
2018-10-04T15:23:10.554Z,8.73
2018-10-04T15:25:40.669Z,7.78
2018-10-04T15:28:10.833Z,7.72
2018-10-04T15:30:40.809Z,6.02
2018-10-04T15:33:10.754Z,7.05
2018-10-04T15:35:40.870Z,7.04
2018-10-04T15:38:10.718Z,5.85
2018-10-04T15:40:40.906Z,6.92
2018-10-04T15:43:10.898Z,7.95
2018-10-04T15:45:40.897Z,6.08
2018-10-04T15:48:10.850Z,6.62
2018-10-04T15:50:40.941Z,8.06
2018-10-04T15:53:10.886Z,6.35
2018-10-04T15:55:40.863Z,5.62
2018-10-04T15:58:10.865Z,8.35
2018-10-04T16:00:40.850Z,15.42
2018-10-04T16:03:10.972Z,6.75
2018-10-04T16:05:41.100Z,5.80
2018-10-04T16:08:10.890Z,6.10
2018-10-04T16:10:40.939Z,5.44
2018-10-04T16:13:10.939Z,6.33
2018-10-04T16:15:46.150Z,6.25
2018-10-04T16:18:15.550Z,5.87
2018-10-04T16:20:44.786Z,5.83
2018-10-04T16:23:14.470Z,6.33
2018-10-04T16:25:44.094Z,6.77
2018-10-04T16:28:13.387Z,6.90
2018-10-04T16:30:42.518Z,6.60
2018-10-04T16:33:11.737Z,6.23
2018-10-04T16:35:41.142Z,7.42
2018-10-04T16:38:11.182Z,5.90
2018-10-04T16:40:41.175Z,6.36
2018-10-04T16:43:11.134Z,6.70
2018-10-04T16:45:41.362Z,6.30
2018-10-04T16:48:11.402Z,5.90
2018-10-04T16:50:41.553Z,6.70
2018-10-04T16:53:11.464Z,6.85
2018-10-04T16:55:41.240Z,6.25
2018-10-04T16:58:11.346Z,6.20
2018-10-04T17:00:41.954Z,7.30
2018-10-04T17:03:11.480Z,6.83
2018-10-04T17:05:41.413Z,6.53
2018-10-04T17:08:11.483Z,7.35
2018-10-04T17:10:41.390Z,7.70
2018-10-04T17:13:11.540Z,7.08
2018-10-04T17:15:41.551Z,8.33
2018-10-04T17:18:11.541Z,7.53
2018-10-04T17:20:41.429Z,8.13
2018-10-04T17:23:11.594Z,7.25
2018-10-04T17:25:41.388Z,7.47
2018-10-04T17:28:11.439Z,8.23
2018-10-04T17:30:41.677Z,8.15
2018-10-04T17:33:11.574Z,8.38
2018-10-04T17:35:41.665Z,7.85
2018-10-04T17:38:11.615Z,7.90
2018-10-04T17:40:42.355Z,8.83
2018-10-04T17:43:11.755Z,14.30
2018-10-04T17:45:41.639Z,16.28
2018-10-04T17:48:11.623Z,8.90
2018-10-04T17:50:41.649Z,8.26
2018-10-04T17:53:11.759Z,8.35
2018-10-04T17:55:41.895Z,8.92
2018-10-04T17:58:11.740Z,8.43
2018-10-04T18:03:21.089Z,13.20
2018-10-04T18:05:51.017Z,10.73
2018-10-04T18:08:20.456Z,9.37
2018-10-04T18:10:49.891Z,9.90
2018-10-04T18:13:19.294Z,16.65
2018-10-04T18:15:48.551Z,13.70
2018-10-04T18:18:17.790Z,11.30
2018-10-04T18:20:47.950Z,11.13
2018-10-04T18:23:17.366Z,8.83
2018-10-04T18:25:46.679Z,10.63
2018-10-04T18:28:16.082Z,9.85
2018-10-04T18:30:45.515Z,10.15
2018-10-04T18:33:14.910Z,9.87
2018-10-04T18:35:44.192Z,9.50
2018-10-04T18:38:13.473Z,9.67
2018-10-04T18:40:42.898Z,10.27
2018-10-04T18:43:12.185Z,10.30
2018-10-04T18:45:42.807Z,10.35
2018-10-04T18:48:11.966Z,10.83
2018-10-04T18:50:42.473Z,9.72
2018-10-04T18:53:12.067Z,11.03
2018-10-04T18:55:42.102Z,10.84
2018-10-04T18:58:12.497Z,11.50
2018-10-04T19:03:18.662Z,12.10
2018-10-04T19:05:47.871Z,10.13
2018-10-04T19:08:16.997Z,10.70
2018-10-04T19:10:46.145Z,12.80
2018-10-04T19:13:15.333Z,12.17
2018-10-04T19:15:44.517Z,12.05
2018-10-04T19:18:13.654Z,11.43
2018-10-04T19:20:42.782Z,12.40
2018-10-04T19:23:11.962Z,13.27
2018-10-04T19:25:42.546Z,11.84
2018-10-04T19:28:12.346Z,11.45
2018-10-04T19:30:42.108Z,12.40
2018-10-04T19:33:11.998Z,11.28
2018-10-04T19:35:42.025Z,11.20
2018-10-04T19:38:12.054Z,12.43
2018-10-04T19:40:42.058Z,11.06
2018-10-04T19:43:11.981Z,11.38
2018-10-04T19:45:42.210Z,12.30
2018-10-04T19:48:12.052Z,12.47
2018-10-04T19:50:41.976Z,12.10
2018-10-04T19:53:12.046Z,12.65
2018-10-04T19:55:42.022Z,11.08
2018-10-04T19:58:12.110Z,12.78
2018-10-04T20:00:42.071Z,11.05
2018-10-04T20:03:12.195Z,11.10
2018-10-04T20:05:42.329Z,12.46
2018-10-04T20:08:12.550Z,10.63
2018-10-04T20:10:42.369Z,12.98
2018-10-04T20:13:12.315Z,12.03
2018-10-04T20:15:42.231Z,12.26
2018-10-04T20:18:12.422Z,12.03
2018-10-04T20:20:42.170Z,12.30
2018-10-04T20:23:12.322Z,12.73
2018-10-04T20:25:42.109Z,11.02
2018-10-04T20:28:12.272Z,10.64
2018-10-04T20:30:42.445Z,12.60
2018-10-04T20:33:12.354Z,12.75
2018-10-04T20:35:42.378Z,12.50
2018-10-04T20:38:12.570Z,13.53
2018-10-04T20:40:41.742Z,12.33
2018-10-04T20:43:12.325Z,13.63
2018-10-04T20:45:42.666Z,11.70
2018-10-04T20:48:12.461Z,12.75
2018-10-04T20:50:43.142Z,11.68
2018-10-04T20:53:12.553Z,10.85
2018-10-04T20:55:42.541Z,10.53
2018-10-04T20:58:12.461Z,11.70
2018-10-04T21:00:42.451Z,11.35
2018-10-04T21:03:12.463Z,11.60
2018-10-04T21:05:42.536Z,10.60
2018-10-04T21:08:12.550Z,9.90
2018-10-04T21:10:42.611Z,12.42
2018-10-04T21:13:12.631Z,12.73
2018-10-04T21:15:42.666Z,13.00
2018-10-04T21:18:12.634Z,12.70
2018-10-04T21:20:42.626Z,12.40
2018-10-04T21:23:12.867Z,12.33
2018-10-04T21:25:42.638Z,11.88
2018-10-04T21:28:12.562Z,12.90
2018-10-04T21:30:42.605Z,12.56
2018-10-04T21:33:12.692Z,11.43
2018-10-04T21:35:42.777Z,11.64
2018-10-04T21:38:13.164Z,10.75
2018-10-04T21:40:42.793Z,12.14
2018-10-04T21:43:12.699Z,11.60
2018-10-04T21:45:42.751Z,11.20
2018-10-04T21:48:12.713Z,10.10
2018-10-04T21:50:42.922Z,10.62
2018-10-04T21:53:12.799Z,11.25
2018-10-04T21:55:42.942Z,9.62
2018-10-04T21:58:12.846Z,11.08
2018-10-04T22:00:48.025Z,10.50
2018-10-04T22:03:17.315Z,9.90
2018-10-04T22:05:46.714Z,10.43
2018-10-04T22:08:15.989Z,10.08
2018-10-04T22:10:45.111Z,12.10
2018-10-04T22:13:14.349Z,10.63
2018-10-04T22:15:43.790Z,10.93
2018-10-04T22:18:13.227Z,10.60
2018-10-04T22:20:43.390Z,10.50
2018-10-04T22:23:13.046Z,11.33
2018-10-04T22:25:43.022Z,10.36
2018-10-04T22:28:13.039Z,11.17
2018-10-04T22:30:43.095Z,10.74
2018-10-04T22:33:13.175Z,10.80
2018-10-04T22:35:43.115Z,11.56
2018-10-04T22:38:13.269Z,12.65
2018-10-04T22:40:43.174Z,10.20
2018-10-04T22:43:13.244Z,11.05
2018-10-04T22:45:43.268Z,10.65
2018-10-04T22:48:13.256Z,10.67
2018-10-04T22:50:43.346Z,9.23
2018-10-04T22:53:13.363Z,11.38
2018-10-04T22:55:43.370Z,10.75
2018-10-04T22:58:13.302Z,10.82
2018-10-04T23:00:43.375Z,10.68
2018-10-04T23:03:13.438Z,11.08
2018-10-04T23:05:43.239Z,11.40
2018-10-04T23:08:16.218Z,11.25
2018-10-04T23:10:45.435Z,10.23
2018-10-04T23:13:14.641Z,11.03
2018-10-04T23:15:43.747Z,11.10
2018-10-04T23:18:13.559Z,10.10
2018-10-04T23:20:43.510Z,10.44
2018-10-04T23:23:13.700Z,10.95
2018-10-04T23:25:43.478Z,10.55
2018-10-04T23:28:13.631Z,11.08
2018-10-04T23:30:43.650Z,12.37
2018-10-04T23:33:13.635Z,11.75
2018-10-04T23:35:43.602Z,11.20
2018-10-04T23:38:13.762Z,11.12
2018-10-04T23:40:43.610Z,11.64
2018-10-04T23:43:13.627Z,11.12
2018-10-04T23:45:43.619Z,12.56
2018-10-04T23:48:13.622Z,11.22
2018-10-04T23:50:43.755Z,11.50
2018-10-04T23:53:13.658Z,11.88
2018-10-04T23:55:43.673Z,11.16
2018-10-04T23:58:13.751Z,11.48
